createdAt,value
2022-11-26T00:03:45.035Z,101697.53
2022-11-26T00:10:46.776Z,101703.13
2022-11-26T00:17:49.151Z,101710.00
2022-11-26T00:24:50.908Z,101706.63
2022-11-26T00:31:52.544Z,101711.06
2022-11-26T00:38:58.028Z,101717.91
2022-11-26T00:45:59.666Z,101729.66
2022-11-26T00:53:01.242Z,101739.53
2022-11-26T01:00:06.485Z,101753.75
2022-11-26T01:07:10.181Z,101744.47
2022-11-26T01:14:18.934Z,101754.19
2022-11-26T01:21:20.730Z,101772.19
2022-11-26T01:28:22.505Z,101782.13
2022-11-26T01:35:24.069Z,101782.53
2022-11-26T01:42:36.970Z,101786.34
2022-11-26T01:49:38.523Z,101793.41
2022-11-26T01:56:48.523Z,101801.88
2022-11-26T02:03:55.241Z,101807.88
2022-11-26T02:10:56.828Z,101804.88
2022-11-26T02:18:01.532Z,101807.59
2022-11-26T02:25:18.687Z,101821.94
2022-11-26T02:32:21.529Z,101830.72
2022-11-26T02:39:24.262Z,101839.72
2022-11-26T02:46:25.916Z,101832.38
2022-11-26T02:53:28.987Z,101845.00
2022-11-26T03:00:31.905Z,101843.25
2022-11-26T03:07:33.617Z,101848.78
2022-11-26T03:14:35.434Z,101845.09
2022-11-26T03:21:37.162Z,101853.91
2022-11-26T03:28:38.823Z,101864.75
2022-11-26T03:35:40.447Z,101874.59
2022-11-26T03:42:42.514Z,101883.56
2022-11-26T03:49:44.154Z,101884.28
2022-11-26T03:56:45.717Z,101897.56
2022-11-26T04:03:47.345Z,101899.44
2022-11-26T04:10:50.449Z,101910.28
2022-11-26T04:17:52.070Z,101920.97
2022-11-26T04:24:53.642Z,101913.84
2022-11-26T04:31:55.307Z,101929.06
2022-11-26T04:38:57.650Z,101942.50
2022-11-26T04:45:59.417Z,101949.63
2022-11-26T04:53:01.047Z,101956.75
2022-11-26T05:00:03.443Z,101969.09
2022-11-26T05:07:05.125Z,101983.44
2022-11-26T05:14:06.663Z,101994.34
2022-11-26T05:21:08.233Z,102000.25
2022-11-26T05:28:09.881Z,102002.97
2022-11-26T05:35:11.425Z,102012.84
2022-11-26T05:42:12.984Z,102030.03
2022-11-26T05:49:14.586Z,102027.59
2022-11-26T05:56:16.339Z,102032.22
2022-11-26T06:03:20.353Z,102045.47
2022-11-26T06:10:22.261Z,102054.47
2022-11-26T06:17:23.891Z,102062.44
2022-11-26T06:24:25.439Z,102073.19
2022-11-26T06:31:27.044Z,102088.63
2022-11-26T06:38:28.677Z,102093.66
2022-11-26T06:45:30.337Z,102108.16
2022-11-26T06:52:31.972Z,102114.16
2022-11-26T06:59:33.595Z,102121.53
2022-11-26T07:06:35.822Z,102127.72
2022-11-26T07:13:37.491Z,102137.50
2022-11-26T07:20:39.105Z,102155.38
2022-11-26T07:27:41.086Z,102162.47
2022-11-26T07:34:42.709Z,102158.19
2022-11-26T07:41:44.290Z,102169.69
2022-11-26T07:48:45.917Z,102168.69
2022-11-26T07:55:47.493Z,102181.91
2022-11-26T08:02:49.111Z,102182.06
2022-11-26T08:09:50.681Z,102187.44
2022-11-26T08:16:52.330Z,102201.47
2022-11-26T08:23:54.060Z,102214.81
2022-11-26T08:31:05.804Z,102219.03
2022-11-26T08:38:07.455Z,102227.31
2022-11-26T08:45:09.321Z,102228.81
2022-11-26T08:52:10.888Z,102239.78
2022-11-26T08:59:12.499Z,102244.06
2022-11-26T09:06:14.054Z,102258.47
2022-11-26T09:13:20.784Z,102265.81
2022-11-26T09:20:22.695Z,102278.91
2022-11-26T09:27:24.265Z,102285.94
2022-11-26T09:34:25.821Z,102287.81
2022-11-26T09:41:39.361Z,102292.25
2022-11-26T09:48:40.926Z,102306.63
2022-11-26T09:55:44.254Z,102311.22
2022-11-26T10:02:45.876Z,102317.13
2022-11-26T10:09:49.717Z,102327.94
2022-11-26T10:17:15.266Z,102318.91
2022-11-26T10:24:37.116Z,102328.03
2022-11-26T10:31:39.600Z,102338.25
2022-11-26T10:38:41.187Z,102336.28
2022-11-26T10:45:42.710Z,102345.31
2022-11-26T10:52:44.470Z,102352.34
2022-11-26T10:59:51.643Z,102360.66
2022-11-26T11:06:53.260Z,102368.41
2022-11-26T11:13:54.938Z,102365.78
2022-11-26T11:20:57.938Z,102374.88
2022-11-26T11:28:12.179Z,102378.34
2022-11-26T11:35:20.224Z,102378.16
2022-11-26T11:42:29.124Z,102381.03
2022-11-26T11:49:55.320Z,102390.84
2022-11-26T11:57:06.697Z,102384.44
2022-11-26T12:04:45.925Z,102384.41
2022-11-26T12:11:47.397Z,102393.28
2022-11-26T12:18:53.895Z,102397.66
2022-11-26T12:26:28.265Z,102383.09
2022-11-26T12:33:50.293Z,102391.06
2022-11-26T12:41:12.649Z,102386.72
2022-11-26T12:48:45.646Z,102387.69
2022-11-26T12:55:57.609Z,102391.22
2022-11-26T13:02:59.278Z,102390.09
2022-11-26T13:10:13.261Z,102389.22
2022-11-26T13:17:16.197Z,102398.38
2022-11-26T13:24:34.264Z,102396.38
2022-11-26T13:31:54.249Z,102401.66
2022-11-26T13:39:37.850Z,102405.28
2022-11-26T13:47:01.517Z,102416.38
2022-11-26T13:54:34.803Z,102418.13
2022-11-26T14:01:40.227Z,102425.38
2022-11-26T14:08:46.850Z,102423.63
2022-11-26T14:15:56.591Z,102432.53
2022-11-26T14:23:02.164Z,102435.31
2022-11-26T14:30:06.113Z,102429.28
2022-11-26T14:37:15.375Z,102430.06
2022-11-26T14:44:17.438Z,102431.00
2022-11-26T14:51:22.612Z,102429.88
2022-11-26T14:58:36.591Z,102436.22
2022-11-26T15:05:43.566Z,102444.38
2022-11-26T15:12:47.964Z,102455.13
2022-11-26T15:19:53.005Z,102451.50
2022-11-26T15:26:54.591Z,102461.38
2022-11-26T15:33:56.179Z,102467.66
2022-11-26T15:41:08.018Z,102451.81
2022-11-26T15:48:51.103Z,102435.75
2022-11-26T15:55:52.807Z,102448.44
2022-11-26T16:02:54.392Z,102452.97
2022-11-26T16:10:22.290Z,102462.72
2022-11-26T16:17:23.928Z,102459.34
2022-11-26T16:24:36.811Z,102462.13
2022-11-26T16:31:38.471Z,102464.84
2022-11-26T16:38:40.045Z,102461.97
2022-11-26T16:45:41.710Z,102465.47
2022-11-26T16:52:43.337Z,102474.44
2022-11-26T16:59:47.111Z,102493.28
2022-11-26T17:06:48.779Z,102498.66
2022-11-26T17:13:50.466Z,102511.22
2022-11-26T17:20:53.041Z,102509.47
2022-11-26T17:27:54.685Z,102513.91
2022-11-26T17:34:56.302Z,102516.59
2022-11-26T17:41:58.215Z,102519.22
2022-11-26T17:49:00.131Z,102520.03
2022-11-26T17:56:01.881Z,102505.75
2022-11-26T18:03:03.581Z,102513.78
2022-11-26T18:10:06.801Z,102510.06
2022-11-26T18:17:09.534Z,102512.00
2022-11-26T18:24:11.262Z,102514.69
2022-11-26T18:31:13.011Z,102518.25
2022-11-26T18:38:14.702Z,102511.03
2022-11-26T18:45:16.294Z,102496.75
2022-11-26T18:52:17.877Z,102497.63
2022-11-26T18:59:19.445Z,102503.91
2022-11-26T19:06:22.527Z,102495.81
2022-11-26T19:13:24.168Z,102500.19
2022-11-26T19:20:25.755Z,102499.25
2022-11-26T19:27:27.322Z,102490.22
2022-11-26T19:34:28.908Z,102496.47
2022-11-26T19:41:30.533Z,102490.44
2022-11-26T19:48:32.985Z,102488.69
2022-11-26T19:55:34.555Z,102477.91
2022-11-26T20:02:36.222Z,102484.31
2022-11-26T20:09:38.379Z,102493.31
2022-11-26T20:16:42.506Z,102487.09
2022-11-26T20:23:44.199Z,102486.94
2022-11-26T20:30:45.804Z,102495.78
2022-11-26T20:37:47.442Z,102494.88
2022-11-26T20:44:49.111Z,102503.91
2022-11-26T20:51:50.790Z,102497.72
2022-11-26T20:58:52.605Z,102498.59
2022-11-26T21:05:54.308Z,102504.38
2022-11-26T21:12:55.892Z,102491.03
2022-11-26T21:19:57.479Z,102484.44
2022-11-26T21:26:59.047Z,102492.56
2022-11-26T21:34:03.576Z,102487.91
2022-11-26T21:41:11.570Z,102490.59
2022-11-26T21:48:13.124Z,102495.16
2022-11-26T21:55:14.765Z,102497.09
2022-11-26T22:02:16.375Z,102485.28
2022-11-26T22:09:18.096Z,102484.25
2022-11-26T22:16:21.489Z,102496.78
2022-11-26T22:23:23.169Z,102491.53
2022-11-26T22:30:24.753Z,102504.81
2022-11-26T22:37:26.387Z,102501.22
2022-11-26T22:44:27.948Z,102496.66
2022-11-26T22:51:30.584Z,102499.25
2022-11-26T22:58:33.102Z,102495.78
2022-11-26T23:05:38.255Z,102499.41
2022-11-26T23:12:39.845Z,102494.97
2022-11-26T23:19:41.689Z,102490.47
2022-11-26T23:26:43.564Z,102486.94
2022-11-26T23:33:45.266Z,102481.63
2022-11-26T23:41:02.241Z,102486.81
2022-11-26T23:48:03.946Z,102482.28
2022-11-26T23:55:05.933Z,102475.22
